Time;durP1;ratioP1;P1;durP2;ratioP2;P2;SDS_P1;SDS_P2;PMS_P1;PMS_P2;Temp;Humidity;BMP_temperature;BMP_pressure;BME280_temperature;BME280_humidity;BME280_pressure;Samples;Min_cycle;Max_cycle;Signal;HPM_P1;HPM_P2
2023/10/05 00:01:11;;;;;;;;;;;18.80;65.70;;;;;;5094850;28;19916;-69
2023/10/05 00:03:45;;;;;;;;;;;18.80;66.30;;;;;;5094751;28;19944;-69
2023/10/05 00:06:16;;;;;;;;;;;18.90;65.60;;;;;;5094746;28;19922;-69
2023/10/05 00:08:49;;;;;;;;;;;18.90;65.30;;;;;;5094478;28;19914;-69
2023/10/05 00:11:23;;;;;;;;;;;19.00;65.30;;;;;;5094456;28;19908;-68
2023/10/05 00:13:53;;;;;;;;;;;19.10;63.90;;;;;;5094129;28;20277;-69
2023/10/05 00:16:21;;;;;;;;;;;19.20;63.70;;;;;;5094406;28;19934;-68
2023/10/05 00:18:51;;;;;;;;;;;19.20;63.50;;;;;;5094357;28;20315;-69
2023/10/05 00:21:19;;;;;;;;;;;19.30;63.70;;;;;;5093964;28;19940;-69
2023/10/05 00:23:50;;;;;;;;;;;19.30;64.20;;;;;;5093790;28;19908;-68
2023/10/05 00:26:20;;;;;;;;;;;19.40;64.40;;;;;;5094116;28;19908;-71
2023/10/05 00:29:00;;;;;;;;;;;19.40;63.40;;;;;;5093215;28;19961;-72
2023/10/05 00:31:27;;;;;;;;;;;19.50;64.30;;;;;;5093976;28;19908;-70
2023/10/05 00:33:56;;;;;;;;;;;19.50;62.20;;;;;;5093919;28;20019;-71
2023/10/05 00:36:33;;;;;;;;;;;19.60;62.60;;;;;;5093932;28;19912;-70
2023/10/05 00:39:02;;;;;;;;;;;19.70;62.70;;;;;;5093811;28;19908;-70
2023/10/05 00:41:28;;;;;;;;;;;19.90;62.70;;;;;;5093847;28;19989;-68
2023/10/05 00:43:55;;;;;;;;;;;19.90;62.60;;;;;;5093946;28;19931;-66
2023/10/05 00:46:23;;;;;;;;;;;20.10;62.70;;;;;;5093681;28;19915;-67
2023/10/05 00:49:19;;;;;;;;;;;20.20;62.10;;;;;;5110674;27;19919;-69
2023/10/05 00:52:29;;;;;;;;;;;20.20;60.60;;;;;;5110663;28;20380;-69
2023/10/05 00:54:38;;;;;;;;;;;20.30;59.60;;;;;;5110251;28;20184;-69
2023/10/05 00:57:09;;;;;;;;;;;20.40;58.60;;;;;;5110986;28;19916;-71
2023/10/05 00:59:37;;;;;;;;;;;20.40;56.10;;;;;;5109589;28;19908;-68
2023/10/05 01:02:06;;;;;;;;;;;20.40;55.80;;;;;;5110559;28;19951;-68
2023/10/05 01:04:52;;;;;;;;;;;20.50;57.50;;;;;;5110544;28;19915;-71
2023/10/05 01:12:38;;;;;;;;;;;21.00;55.50;;;;;;5110398;28;19908;-68
2023/10/05 01:15:15;;;;;;;;;;;21.10;55.10;;;;;;5110376;28;20418;-70
2023/10/05 01:17:42;;;;;;;;;;;21.10;54.30;;;;;;5110108;28;19944;-69
2023/10/05 01:20:12;;;;;;;;;;;21.30;55.40;;;;;;5110426;28;19908;-70
2023/10/05 01:22:39;;;;;;;;;;;21.60;56.40;;;;;;5110290;28;19958;-69
2023/10/05 01:25:08;;;;;;;;;;;21.70;56.80;;;;;;5110037;28;19908;-68
2023/10/05 01:27:38;;;;;;;;;;;21.80;55.20;;;;;;5109843;28;19916;-69
2023/10/05 01:30:06;;;;;;;;;;;21.80;55.30;;;;;;5109950;28;19947;-68
2023/10/05 01:32:34;;;;;;;;;;;21.90;55.40;;;;;;5109980;28;19908;-70
2023/10/05 01:35:12;;;;;;;;;;;21.90;52.70;;;;;;5110014;28;20365;-67
2023/10/05 01:37:40;;;;;;;;;;;21.90;54.20;;;;;;5109802;28;19908;-67
2023/10/05 01:40:47;;;;;;;;;;;22.00;51.50;;;;;;5109918;28;20441;-72
2023/10/05 01:42:59;;;;;;;;;;;22.30;52.00;;;;;;5109549;28;19931;-71
2023/10/05 01:45:37;;;;;;;;;;;22.40;51.20;;;;;;5109576;28;19915;-71
2023/10/05 01:48:12;;;;;;;;;;;22.40;50.80;;;;;;5122865;28;20495;-72
2023/10/05 01:50:39;;;;;;;;;;;22.60;52.70;;;;;;5130258;28;20060;-70
2023/10/05 01:53:15;;;;;;;;;;;22.80;50.40;;;;;;5130096;28;19908;-70
2023/10/05 01:55:45;;;;;;;;;;;22.90;49.00;;;;;;5130019;28;19908;-71
2023/10/05 01:58:37;;;;;;;;;;;22.90;49.60;;;;;;5128541;28;20276;-71
2023/10/05 02:00:59;;;;;;;;;;;23.20;51.20;;;;;;5115761;28;19918;-72
2023/10/05 02:03:26;;;;;;;;;;;23.40;50.60;;;;;;5116455;28;19908;-73
2023/10/05 02:05:58;;;;;;;;;;;23.50;50.10;;;;;;5116434;28;19912;-70
2023/10/05 02:08:27;;;;;;;;;;;23.40;48.60;;;;;;5115790;28;19916;-70
2023/10/05 02:10:54;;;;;;;;;;;23.20;48.10;;;;;;5115839;28;19962;-68
2023/10/05 02:13:23;;;;;;;;;;;23.30;50.10;;;;;;5116003;28;19908;-67
2023/10/05 02:15:54;;;;;;;;;;;23.30;50.10;;;;;;5115742;28;20356;-68
2023/10/05 02:18:24;;;;;;;;;;;23.20;48.90;;;;;;5115559;28;19908;-70
2023/10/05 02:20:56;;;;;;;;;;;23.40;48.70;;;;;;5115595;28;19908;-68
2023/10/05 02:23:26;;;;;;;;;;;23.50;48.90;;;;;;5115766;28;19908;-69
2023/10/05 02:25:56;;;;;;;;;;;23.50;49.30;;;;;;5115779;28;19908;-71
2023/10/05 02:28:26;;;;;;;;;;;23.50;48.30;;;;;;5097395;28;19916;-68
2023/10/05 02:30:53;;;;;;;;;;;23.60;48.80;;;;;;5115497;28;19907;-71
2023/10/05 02:33:24;;;;;;;;;;;23.90;49.40;;;;;;5115438;28;19908;-71
2023/10/05 02:35:55;;;;;;;;;;;24.60;48.20;;;;;;5115357;28;19907;-71
2023/10/05 02:38:23;;;;;;;;;;;25.10;46.60;;;;;;5098029;28;19994;-73
2023/10/05 02:40:54;;;;;;;;;;;25.70;45.80;;;;;;5115331;28;19912;-68
2023/10/05 02:43:27;;;;;;;;;;;26.10;46.20;;;;;;5115397;28;19961;-68
2023/10/05 02:46:09;;;;;;;;;;;26.70;45.70;;;;;;5115139;28;19908;-69
2023/10/05 02:48:36;;;;;;;;;;;27.30;44.50;;;;;;5115042;28;19920;-71
2023/10/05 02:51:06;;;;;;;;;;;27.90;43.60;;;;;;5114913;28;19914;-71
2023/10/05 02:53:46;;;;;;;;;;;28.50;44.40;;;;;;5115207;28;19915;-70
2023/10/05 02:56:16;;;;;;;;;;;29.70;43.60;;;;;;5115211;28;20003;-70
2023/10/05 02:58:44;;;;;;;;;;;30.20;44.00;;;;;;5115426;28;19915;-70
2023/10/05 03:01:13;;;;;;;;;;;31.30;42.90;;;;;;5114926;28;19908;-70
2023/10/05 03:03:42;;;;;;;;;;;31.80;41.60;;;;;;5114895;28;19908;-69
2023/10/05 03:06:10;;;;;;;;;;;31.60;39.50;;;;;;5114974;28;20288;-72
2023/10/05 03:08:37;;;;;;;;;;;31.80;41.30;;;;;;5114741;28;20344;-70
2023/10/05 03:11:08;;;;;;;;;;;32.70;41.00;;;;;;5113648;28;19914;-67
2023/10/05 03:13:37;;;;;;;;;;;33.20;41.30;;;;;;5114800;28;19904;-69
2023/10/05 03:16:09;;;;;;;;;;;34.00;40.50;;;;;;5114859;28;20110;-70
2023/10/05 03:18:38;;;;;;;;;;;34.20;39.30;;;;;;5114283;28;19915;-68
2023/10/05 03:21:12;;;;;;;;;;;33.80;39.90;;;;;;5114531;28;20376;-67
2023/10/05 03:23:41;;;;;;;;;;;33.90;39.20;;;;;;5114601;28;20280;-70
2023/10/05 03:26:08;;;;;;;;;;;33.70;39.00;;;;;;5114641;28;19908;-71
2023/10/05 03:28:35;;;;;;;;;;;32.70;39.40;;;;;;5114523;28;19915;-72
2023/10/05 03:31:12;;;;;;;;;;;32.90;39.20;;;;;;5114223;28;20405;-71
2023/10/05 03:33:39;;;;;;;;;;;33.30;39.60;;;;;;5114389;28;19908;-69
2023/10/05 03:36:15;;;;;;;;;;;33.50;39.00;;;;;;5114525;28;19915;-68
2023/10/05 03:38:43;;;;;;;;;;;34.10;39.40;;;;;;5114119;28;19950;-69
2023/10/05 03:41:15;;;;;;;;;;;34.70;40.10;;;;;;5114277;28;20386;-68
2023/10/05 03:43:46;;;;;;;;;;;35.50;39.40;;;;;;5114103;28;20361;-67
2023/10/05 03:46:13;;;;;;;;;;;36.20;39.20;;;;;;5113980;28;19961;-69
2023/10/05 03:48:42;;;;;;;;;;;35.20;38.00;;;;;;5114599;28;19970;-68
2023/10/05 03:51:15;;;;;;;;;;;33.80;38.60;;;;;;5113848;28;19975;-71
2023/10/05 03:53:48;;;;;;;;;;;34.10;39.60;;;;;;5114210;28;20375;-70
2023/10/05 03:56:23;;;;;;;;;;;34.70;38.20;;;;;;5114031;28;19908;-70
2023/10/05 03:58:53;;;;;;;;;;;35.30;38.90;;;;;;5113912;28;19915;-70
2023/10/05 04:01:22;;;;;;;;;;;35.30;39.40;;;;;;5113848;28;19931;-68
2023/10/05 04:03:49;;;;;;;;;;;36.30;38.50;;;;;;5113854;28;19969;-68
2023/10/05 04:06:24;;;;;;;;;;;36.30;37.90;;;;;;5113538;28;20006;-67
2023/10/05 04:08:57;;;;;;;;;;;35.40;37.70;;;;;;5113460;28;20011;-69
2023/10/05 04:11:26;;;;;;;;;;;35.70;38.90;;;;;;5113557;28;19990;-67
2023/10/05 04:13:57;;;;;;;;;;;35.60;38.20;;;;;;5113599;28;19958;-68
2023/10/05 04:16:28;;;;;;;;;;;35.70;38.70;;;;;;5113522;28;19911;-69
2023/10/05 04:18:58;;;;;;;;;;;35.90;38.40;;;;;;5113530;28;20276;-68
2023/10/05 04:21:25;;;;;;;;;;;36.10;38.30;;;;;;5095013;28;19916;-66
2023/10/05 04:23:52;;;;;;;;;;;35.90;37.70;;;;;;5113783;28;19990;-69
2023/10/05 04:26:26;;;;;;;;;;;35.70;38.50;;;;;;5095474;28;19919;-67
2023/10/05 04:28:54;;;;;;;;;;;36.00;39.10;;;;;;5113561;28;19916;-68
2023/10/05 04:31:27;;;;;;;;;;;36.40;38.40;;;;;;5113294;28;19907;-66
2023/10/05 04:33:55;;;;;;;;;;;36.20;38.70;;;;;;5113657;28;19908;-69
2023/10/05 04:36:23;;;;;;;;;;;36.40;39.30;;;;;;5113454;28;19960;-67
2023/10/05 04:38:54;;;;;;;;;;;36.10;38.50;;;;;;5113182;28;19966;-66
2023/10/05 04:41:24;;;;;;;;;;;35.90;38.50;;;;;;5113359;28;20421;-69
2023/10/05 04:43:51;;;;;;;;;;;35.60;38.40;;;;;;5113140;28;19931;-70
2023/10/05 04:46:18;;;;;;;;;;;35.50;40.20;;;;;;5113379;28;19908;-68
2023/10/05 04:49:30;;;;;;;;;;;35.00;39.10;;;;;;5112979;28;19920;-68
2023/10/05 04:51:32;;;;;;;;;;;35.60;39.60;;;;;;5101918;28;19958;-69
2023/10/05 04:53:59;;;;;;;;;;;36.20;38.70;;;;;;5113162;28;19908;-67
2023/10/05 04:56:53;;;;;;;;;;;36.40;38.10;;;;;;5113123;28;19947;-67
2023/10/05 05:07:02;;;;;;;;;;;37.00;38.70;;;;;;5113121;28;19958;-68
2023/10/05 05:09:35;;;;;;;;;;;37.40;38.50;;;;;;5113028;28;20412;-66
2023/10/05 05:12:05;;;;;;;;;;;37.30;38.00;;;;;;5112838;28;19912;-67
2023/10/05 05:14:35;;;;;;;;;;;37.00;37.90;;;;;;5112935;28;20360;-67
2023/10/05 05:17:05;;;;;;;;;;;36.80;38.10;;;;;;5112918;28;19915;-66
2023/10/05 05:19:32;;;;;;;;;;;36.60;38.40;;;;;;5112958;28;20405;-69
2023/10/05 05:22:08;;;;;;;;;;;36.10;38.70;;;;;;5113377;28;19952;-70
2023/10/05 05:24:35;;;;;;;;;;;35.10;39.40;;;;;;5112969;28;19947;-68
2023/10/05 05:27:21;;;;;;;;;;;35.30;40.00;;;;;;5113077;28;19912;-67
2023/10/05 05:29:48;;;;;;;;;;;35.70;39.40;;;;;;5112861;28;19916;-66
2023/10/05 05:32:15;;;;;;;;;;;35.80;40.00;;;;;;5113057;28;19950;-69
2023/10/05 05:34:42;;;;;;;;;;;36.00;39.40;;;;;;5114788;28;19953;-68
2023/10/05 05:37:25;;;;;;;;;;;35.80;38.90;;;;;;5116667;28;19918;-70
2023/10/05 05:39:55;;;;;;;;;;;35.80;40.10;;;;;;5116524;28;19961;-72
2023/10/05 05:42:25;;;;;;;;;;;36.40;39.70;;;;;;5116648;28;19961;-68
2023/10/05 05:44:55;;;;;;;;;;;36.40;39.30;;;;;;5116456;28;20379;-68
2023/10/05 05:47:22;;;;;;;;;;;36.20;38.80;;;;;;5116117;28;20386;-68
2023/10/05 05:49:50;;;;;;;;;;;35.50;39.30;;;;;;5116430;28;19994;-67
2023/10/05 05:52:17;;;;;;;;;;;34.90;39.10;;;;;;5098256;28;20272;-67
2023/10/05 05:54:47;;;;;;;;;;;33.30;40.30;;;;;;5116365;28;19914;-69
2023/10/05 05:57:20;;;;;;;;;;;32.80;41.50;;;;;;5116143;28;19908;-68
2023/10/05 05:59:47;;;;;;;;;;;32.30;41.90;;;;;;5115869;28;20003;-67
2023/10/05 06:02:13;;;;;;;;;;;32.20;42.00;;;;;;5116435;28;19953;-67
2023/10/05 06:04:41;;;;;;;;;;;32.60;41.70;;;;;;5116462;28;20321;-67
2023/10/05 06:07:14;;;;;;;;;;;33.10;41.60;;;;;;5116008;28;19916;-70
2023/10/05 06:09:47;;;;;;;;;;;33.70;41.20;;;;;;5115825;28;19908;-69
2023/10/05 06:12:15;;;;;;;;;;;33.90;41.00;;;;;;5116030;28;19953;-69
2023/10/05 06:14:46;;;;;;;;;;;34.00;40.70;;;;;;5116136;28;20407;-70
2023/10/05 06:17:13;;;;;;;;;;;34.50;41.80;;;;;;5115831;28;20291;-68
2023/10/05 06:19:39;;;;;;;;;;;34.70;40.10;;;;;;5116159;28;20287;-69
2023/10/05 06:22:07;;;;;;;;;;;33.90;40.10;;;;;;5115670;28;19908;-67
2023/10/05 06:24:41;;;;;;;;;;;33.60;42.10;;;;;;5115677;28;19930;-67
2023/10/05 06:27:07;;;;;;;;;;;33.30;41.00;;;;;;5115846;28;19927;-67
2023/10/05 06:29:34;;;;;;;;;;;32.40;41.40;;;;;;5115604;28;19907;-69
2023/10/05 06:32:04;;;;;;;;;;;30.70;42.10;;;;;;5115867;28;19915;-70
2023/10/05 06:34:31;;;;;;;;;;;29.40;43.40;;;;;;5115408;28;19908;-68
2023/10/05 06:36:57;;;;;;;;;;;29.50;43.30;;;;;;5115527;28;19907;-68
2023/10/05 06:39:27;;;;;;;;;;;30.20;43.00;;;;;;5115616;28;19923;-69
2023/10/05 06:41:54;;;;;;;;;;;31.00;42.30;;;;;;5115278;28;19913;-69
2023/10/05 06:44:21;;;;;;;;;;;31.10;41.70;;;;;;5115348;28;19911;-66
2023/10/05 06:46:48;;;;;;;;;;;30.70;42.30;;;;;;5115141;28;20447;-69
2023/10/05 06:49:14;;;;;;;;;;;29.90;42.90;;;;;;5115252;28;19950;-68
2023/10/05 06:51:45;;;;;;;;;;;29.80;42.10;;;;;;5114844;28;19939;-68
2023/10/05 06:54:13;;;;;;;;;;;29.20;42.50;;;;;;5114762;28;19908;-67
2023/10/05 06:56:41;;;;;;;;;;;28.70;42.90;;;;;;5115210;28;19930;-68
2023/10/05 06:59:08;;;;;;;;;;;28.00;43.90;;;;;;5114970;28;19999;-70
2023/10/05 07:01:35;;;;;;;;;;;27.90;44.30;;;;;;5115093;28;19908;-70
2023/10/05 07:04:01;;;;;;;;;;;27.70;44.50;;;;;;5114946;28;19961;-69
2023/10/05 07:06:32;;;;;;;;;;;27.50;44.40;;;;;;5114863;28;19908;-68
2023/10/05 07:08:59;;;;;;;;;;;27.30;44.60;;;;;;5114937;28;19942;-70
2023/10/05 07:11:26;;;;;;;;;;;27.10;44.40;;;;;;5114411;28;19911;-69
2023/10/05 07:13:52;;;;;;;;;;;26.60;45.10;;;;;;5114521;28;20296;-70
2023/10/05 07:16:19;;;;;;;;;;;25.90;45.70;;;;;;5114750;28;19918;-70
2023/10/05 07:18:46;;;;;;;;;;;25.10;46.30;;;;;;5114685;28;19988;-69
2023/10/05 07:21:12;;;;;;;;;;;24.20;47.30;;;;;;5114687;28;19908;-68
2023/10/05 07:23:41;;;;;;;;;;;23.40;48.10;;;;;;5114682;28;20346;-70
2023/10/05 07:26:11;;;;;;;;;;;22.90;49.20;;;;;;5114669;28;19960;-68
2023/10/05 07:28:39;;;;;;;;;;;22.30;49.80;;;;;;5114386;28;19916;-71
2023/10/05 07:31:06;;;;;;;;;;;22.00;50.50;;;;;;5114619;28;19915;-69
2023/10/05 07:33:36;;;;;;;;;;;21.70;51.20;;;;;;5114421;28;19918;-70
2023/10/05 07:36:03;;;;;;;;;;;21.60;51.10;;;;;;5114554;28;19999;-70
2023/10/05 07:38:30;;;;;;;;;;;21.30;51.50;;;;;;5114307;28;19912;-69
2023/10/05 07:40:57;;;;;;;;;;;21.10;51.90;;;;;;5114225;28;19915;-70
2023/10/05 07:43:24;;;;;;;;;;;21.00;52.60;;;;;;5114053;28;20272;-72
2023/10/05 07:45:50;;;;;;;;;;;20.90;52.60;;;;;;5113966;28;19907;-70
2023/10/05 07:48:17;;;;;;;;;;;20.80;53.10;;;;;;5113988;28;19920;-69
2023/10/05 07:50:44;;;;;;;;;;;20.70;53.50;;;;;;5114373;28;20270;-68
2023/10/05 07:53:10;;;;;;;;;;;20.60;54.30;;;;;;5114049;28;19915;-68
2023/10/05 07:55:37;;;;;;;;;;;20.40;54.10;;;;;;5114160;28;20270;-68
2023/10/05 07:58:05;;;;;;;;;;;20.30;54.40;;;;;;5095156;28;19915;-70
2023/10/05 08:00:33;;;;;;;;;;;20.20;54.80;;;;;;5113531;28;19907;-69
2023/10/05 08:02:59;;;;;;;;;;;20.20;54.80;;;;;;5113961;28;20006;-69
2023/10/05 08:05:26;;;;;;;;;;;20.00;55.20;;;;;;5113936;28;19930;-70
2023/10/05 08:07:54;;;;;;;;;;;19.90;55.60;;;;;;5113958;28;19916;-67
2023/10/05 08:10:21;;;;;;;;;;;19.90;56.00;;;;;;5113686;28;20272;-69
2023/10/05 08:12:50;;;;;;;;;;;19.80;56.30;;;;;;5113669;28;19908;-69
2023/10/05 08:15:20;;;;;;;;;;;19.70;56.90;;;;;;5113558;28;19908;-68
2023/10/05 08:17:48;;;;;;;;;;;19.70;57.20;;;;;;5113517;28;19904;-71
2023/10/05 08:20:17;;;;;;;;;;;19.50;57.30;;;;;;5113682;28;20025;-69
2023/10/05 08:22:46;;;;;;;;;;;19.50;58.30;;;;;;5095355;28;19912;-65
2023/10/05 08:25:13;;;;;;;;;;;19.40;58.70;;;;;;5095249;28;20284;-67
2023/10/05 08:27:42;;;;;;;;;;;19.40;58.60;;;;;;5113408;28;20018;-67
2023/10/05 08:30:10;;;;;;;;;;;19.30;59.20;;;;;;5113461;28;19908;-68
2023/10/05 08:32:37;;;;;;;;;;;19.30;59.80;;;;;;5113863;28;19957;-68
2023/10/05 08:35:12;;;;;;;;;;;19.20;60.10;;;;;;5095137;28;20419;-67
2023/10/05 08:37:42;;;;;;;;;;;19.10;60.10;;;;;;5113457;28;20360;-67
2023/10/05 08:43:16;;;;;;;;;;;19.00;60.50;;;;;;5113692;28;19960;-70
2023/10/05 08:45:46;;;;;;;;;;;18.90;61.00;;;;;;5113724;28;19908;-68
2023/10/05 08:48:29;;;;;;;;;;;18.90;61.30;;;;;;5110114;28;19964;-67
2023/10/05 08:51:05;;;;;;;;;;;18.80;61.20;;;;;;5117021;28;20268;-69
2023/10/05 08:53:31;;;;;;;;;;;18.80;61.50;;;;;;5115337;28;19915;-71
2023/10/05 08:56:02;;;;;;;;;;;18.60;62.00;;;;;;5126117;28;19907;-70
2023/10/05 08:58:29;;;;;;;;;;;18.60;62.00;;;;;;5123992;28;19939;-66
2023/10/05 09:01:03;;;;;;;;;;;18.50;62.30;;;;;;5127142;28;20320;-71
2023/10/05 09:03:30;;;;;;;;;;;18.40;62.30;;;;;;5115903;28;19919;-70
2023/10/05 09:06:13;;;;;;;;;;;18.40;62.80;;;;;;5126425;28;20280;-68
2023/10/05 09:11:31;;;;;;;;;;;18.30;62.40;;;;;;5133558;27;19908;-71
2023/10/05 09:14:14;;;;;;;;;;;18.20;62.30;;;;;;5123211;27;19929;-69
2023/10/05 09:16:41;;;;;;;;;;;18.20;62.40;;;;;;5124065;27;19987;-68
2023/10/05 09:19:09;;;;;;;;;;;18.10;62.40;;;;;;5133112;27;19907;-68
2023/10/05 09:21:51;;;;;;;;;;;18.00;62.80;;;;;;5137459;27;19994;-73
2023/10/05 09:24:24;;;;;;;;;;;17.90;63.10;;;;;;5129559;27;20279;-68
2023/10/05 09:26:52;;;;;;;;;;;17.90;63.30;;;;;;5116933;28;19908;-71
2023/10/05 09:29:23;;;;;;;;;;;17.90;63.30;;;;;;5116673;28;19912;-68
2023/10/05 09:31:56;;;;;;;;;;;17.80;63.30;;;;;;5116715;28;19918;-69
2023/10/05 09:34:37;;;;;;;;;;;17.80;63.50;;;;;;5116595;28;19943;-70
2023/10/05 09:37:05;;;;;;;;;;;17.80;64.00;;;;;;5116540;28;19965;-70
2023/10/05 09:39:37;;;;;;;;;;;17.70;63.70;;;;;;5116312;28;20356;-71
2023/10/05 09:42:04;;;;;;;;;;;17.70;64.10;;;;;;5116569;28;20371;-68
2023/10/05 09:44:31;;;;;;;;;;;17.70;64.30;;;;;;5116588;28;19999;-69
2023/10/05 09:46:59;;;;;;;;;;;17.70;64.50;;;;;;5116184;28;19975;-67
2023/10/05 09:49:28;;;;;;;;;;;17.60;64.10;;;;;;5116385;28;19908;-71
2023/10/05 09:51:57;;;;;;;;;;;17.60;65.20;;;;;;5116231;28;19908;-70
2023/10/05 09:54:27;;;;;;;;;;;17.50;64.50;;;;;;5116216;28;19908;-69
2023/10/05 09:56:54;;;;;;;;;;;17.50;64.80;;;;;;5116591;28;20014;-69
2023/10/05 09:59:22;;;;;;;;;;;17.50;65.50;;;;;;5115864;28;19908;-72
2023/10/05 10:01:50;;;;;;;;;;;17.50;65.70;;;;;;5116293;28;19964;-69
2023/10/05 10:04:34;;;;;;;;;;;17.50;65.20;;;;;;5116341;28;20324;-69
2023/10/05 10:07:03;;;;;;;;;;;17.40;65.20;;;;;;5115630;28;19908;-69
2023/10/05 10:09:32;;;;;;;;;;;17.40;65.70;;;;;;5115759;28;19912;-69
2023/10/05 10:11:59;;;;;;;;;;;17.40;66.00;;;;;;5115685;28;20383;-68
2023/10/05 10:14:29;;;;;;;;;;;17.30;65.80;;;;;;5115756;28;19907;-69
2023/10/05 10:17:08;;;;;;;;;;;17.30;66.10;;;;;;5115742;28;19976;-68
2023/10/05 10:19:45;;;;;;;;;;;17.20;67.10;;;;;;5115300;28;20357;-70
2023/10/05 10:22:12;;;;;;;;;;;17.20;66.20;;;;;;5115687;28;19908;-68
2023/10/05 10:24:40;;;;;;;;;;;17.20;65.80;;;;;;5115697;28;19916;-69
2023/10/05 10:27:08;;;;;;;;;;;17.10;66.20;;;;;;5115420;28;19939;-69
2023/10/05 10:29:43;;;;;;;;;;;17.10;66.20;;;;;;5115507;28;19912;-68
2023/10/05 10:32:19;;;;;;;;;;;17.10;66.80;;;;;;5115415;28;19951;-70
2023/10/05 10:34:49;;;;;;;;;;;17.10;66.80;;;;;;5115724;28;19915;-68
2023/10/05 10:37:36;;;;;;;;;;;17.10;66.70;;;;;;5115690;28;20418;-69
2023/10/05 10:40:53;;;;;;;;;;;17.00;67.60;;;;;;5115445;28;20010;-67
2023/10/05 10:43:06;;;;;;;;;;;16.90;68.30;;;;;;5104132;28;20084;-68
2023/10/05 10:45:40;;;;;;;;;;;16.90;67.30;;;;;;5115312;28;19995;-68
2023/10/05 10:48:28;;;;;;;;;;;16.80;67.60;;;;;;5115048;28;19927;-70
2023/10/05 10:51:00;;;;;;;;;;;16.70;66.90;;;;;;5114704;28;19998;-72
2023/10/05 10:53:31;;;;;;;;;;;16.80;67.50;;;;;;5114974;28;19908;-67
2023/10/05 10:56:03;;;;;;;;;;;16.80;67.10;;;;;;5115161;28;19908;-68
2023/10/05 10:58:32;;;;;;;;;;;16.80;67.30;;;;;;5114991;28;19991;-66
2023/10/05 11:01:41;;;;;;;;;;;16.70;66.20;;;;;;5114716;28;19915;-69
2023/10/05 11:03:55;;;;;;;;;;;16.70;66.00;;;;;;5111456;28;19931;-69
2023/10/05 11:06:26;;;;;;;;;;;16.70;66.00;;;;;;5114797;28;19908;-68
2023/10/05 11:08:53;;;;;;;;;;;16.70;66.30;;;;;;5114850;28;19916;-68
2023/10/05 11:11:20;;;;;;;;;;;16.60;65.60;;;;;;5114853;28;19912;-68
2023/10/05 11:14:00;;;;;;;;;;;16.60;65.80;;;;;;5114790;28;20339;-69
2023/10/05 11:16:59;;;;;;;;;;;16.60;66.40;;;;;;5114669;28;19907;-70
2023/10/05 11:19:24;;;;;;;;;;;16.60;65.80;;;;;;5113819;28;20368;-71
2023/10/05 11:21:51;;;;;;;;;;;16.60;66.50;;;;;;5114434;28;20409;-70
2023/10/05 11:24:18;;;;;;;;;;;16.60;66.30;;;;;;5114456;28;20361;-68
2023/10/05 11:29:42;;;;;;;;;;;16.50;65.70;;;;;;5114081;28;19922;-70
2023/10/05 11:32:21;;;;;;;;;;;16.50;65.60;;;;;;5113328;28;19962;-67
2023/10/05 11:34:54;;;;;;;;;;;16.50;66.30;;;;;;5114399;28;19908;-68
2023/10/05 11:37:25;;;;;;;;;;;16.50;66.60;;;;;;5114053;28;19908;-70
2023/10/05 11:39:58;;;;;;;;;;;16.50;66.70;;;;;;5113762;28;19908;-71
2023/10/05 11:42:25;;;;;;;;;;;16.50;66.20;;;;;;5114338;28;20265;-67
2023/10/05 11:44:57;;;;;;;;;;;16.40;66.70;;;;;;5114036;28;19915;-69
2023/10/05 11:47:46;;;;;;;;;;;16.40;66.80;;;;;;5113817;28;19965;-68
2023/10/05 11:50:24;;;;;;;;;;;16.30;66.70;;;;;;5113660;28;20432;-68
2023/10/05 11:52:54;;;;;;;;;;;16.30;66.50;;;;;;5113726;28;20318;-70
2023/10/05 11:55:21;;;;;;;;;;;16.30;66.80;;;;;;5114022;28;19915;-71
2023/10/05 11:57:48;;;;;;;;;;;16.30;66.60;;;;;;5113875;28;20284;-68
2023/10/05 12:00:16;;;;;;;;;;;16.20;66.50;;;;;;5113811;28;20305;-67
2023/10/05 12:02:44;;;;;;;;;;;16.30;66.40;;;;;;5113787;28;19939;-69
2023/10/05 12:05:13;;;;;;;;;;;16.20;66.90;;;;;;5113652;28;19908;-71
2023/10/05 12:07:41;;;;;;;;;;;16.30;66.20;;;;;;5113654;28;19916;-72
2023/10/05 12:10:09;;;;;;;;;;;16.20;66.10;;;;;;5113663;28;19907;-70
2023/10/05 12:12:37;;;;;;;;;;;16.20;66.30;;;;;;5113614;28;19907;-69
2023/10/05 12:15:12;;;;;;;;;;;16.20;66.70;;;;;;5113651;28;20371;-72
2023/10/05 12:17:44;;;;;;;;;;;16.10;66.60;;;;;;5113232;28;19915;-68
2023/10/05 12:20:15;;;;;;;;;;;16.00;67.10;;;;;;5113613;28;19953;-66
2023/10/05 12:22:43;;;;;;;;;;;16.10;66.80;;;;;;5113644;28;19946;-69
2023/10/05 12:25:14;;;;;;;;;;;16.10;67.10;;;;;;5113185;28;19911;-69
2023/10/05 12:27:41;;;;;;;;;;;16.00;67.00;;;;;;5113452;28;19912;-67
2023/10/05 12:30:11;;;;;;;;;;;16.00;67.40;;;;;;5113352;28;19999;-67
2023/10/05 12:32:38;;;;;;;;;;;16.00;68.30;;;;;;5113463;28;20100;-67
2023/10/05 12:35:06;;;;;;;;;;;16.00;67.80;;;;;;5113650;28;19912;-67
2023/10/05 12:37:33;;;;;;;;;;;16.00;68.10;;;;;;5113320;28;19915;-66
2023/10/05 12:40:17;;;;;;;;;;;15.90;67.80;;;;;;5113112;28;19914;-66
2023/10/05 12:42:51;;;;;;;;;;;15.90;67.50;;;;;;5112986;28;19976;-70
2023/10/05 12:45:22;;;;;;;;;;;15.90;67.60;;;;;;5113208;28;19943;-66
2023/10/05 12:47:52;;;;;;;;;;;15.90;67.50;;;;;;5112546;28;19959;-66
2023/10/05 12:50:20;;;;;;;;;;;15.90;68.30;;;;;;5112791;28;19908;-67
2023/10/05 12:52:50;;;;;;;;;;;15.90;68.50;;;;;;5113157;28;19912;-67
2023/10/05 12:55:23;;;;;;;;;;;15.80;68.40;;;;;;5113297;28;19953;-67
2023/10/05 12:57:53;;;;;;;;;;;15.80;69.00;;;;;;5112980;28;20442;-66
2023/10/05 13:00:22;;;;;;;;;;;15.80;68.70;;;;;;5112893;28;19920;-68
2023/10/05 13:02:55;;;;;;;;;;;15.80;68.60;;;;;;5113206;28;19912;-67
2023/10/05 13:08:20;;;;;;;;;;;15.70;68.50;;;;;;5099539;28;20416;-68
2023/10/05 13:10:48;;;;;;;;;;;15.60;68.60;;;;;;5112923;28;19912;-70
2023/10/05 13:13:17;;;;;;;;;;;15.60;69.90;;;;;;5113041;28;19936;-69
2023/10/05 13:15:45;;;;;;;;;;;15.70;69.00;;;;;;5113080;28;19915;-68
2023/10/05 13:18:21;;;;;;;;;;;15.60;70.00;;;;;;5094628;28;20010;-68
2023/10/05 13:21:01;;;;;;;;;;;15.60;69.50;;;;;;5048248;28;20263;-69
2023/10/05 13:23:38;;;;;;;;;;;15.60;69.10;;;;;;5079046;28;20010;-69
2023/10/05 13:26:06;;;;;;;;;;;15.50;69.50;;;;;;5112762;28;19920;-69
2023/10/05 13:28:33;;;;;;;;;;;15.50;69.70;;;;;;5112607;28;19955;-69
2023/10/05 13:31:05;;;;;;;;;;;15.40;69.50;;;;;;5112962;28;20010;-68
2023/10/05 13:33:39;;;;;;;;;;;15.40;69.60;;;;;;5094913;28;19975;-69
2023/10/05 13:36:12;;;;;;;;;;;15.40;69.40;;;;;;5112844;28;19915;-70
2023/10/05 13:38:39;;;;;;;;;;;15.40;69.90;;;;;;5112863;28;19912;-71
2023/10/05 13:43:33;;;;;;;;;;;15.30;70.50;;;;;;5112783;28;19908;-72
2023/10/05 13:46:15;;;;;;;;;;;15.30;70.50;;;;;;5113081;28;19919;-69
2023/10/05 13:48:43;;;;;;;;;;;15.30;70.00;;;;;;5112933;28;20284;-70
2023/10/05 13:51:16;;;;;;;;;;;15.30;70.90;;;;;;5112740;28;19919;-69
2023/10/05 13:53:47;;;;;;;;;;;15.30;71.10;;;;;;5094954;28;19908;-72
2023/10/05 13:56:14;;;;;;;;;;;15.20;71.20;;;;;;5115901;28;19915;-71
2023/10/05 13:58:44;;;;;;;;;;;15.20;70.70;;;;;;5116373;28;19908;-68
2023/10/05 14:01:21;;;;;;;;;;;15.20;71.70;;;;;;5098467;28;19907;-70
2023/10/05 14:03:48;;;;;;;;;;;15.20;71.80;;;;;;5116180;28;19908;-70
2023/10/05 14:06:15;;;;;;;;;;;15.10;72.50;;;;;;5116842;28;19914;-70
2023/10/05 14:08:44;;;;;;;;;;;15.10;71.90;;;;;;5116937;28;20391;-67
2023/10/05 14:11:11;;;;;;;;;;;15.10;71.80;;;;;;5116314;28;20381;-71
2023/10/05 14:13:38;;;;;;;;;;;15.00;71.00;;;;;;5116400;28;19995;-70
2023/10/05 14:16:06;;;;;;;;;;;15.10;71.70;;;;;;5115596;28;19910;-69
2023/10/05 14:18:36;;;;;;;;;;;15.00;71.90;;;;;;5115483;28;19935;-74
2023/10/05 14:21:04;;;;;;;;;;;15.00;72.70;;;;;;5115302;28;19961;-69
2023/10/05 14:23:30;;;;;;;;;;;14.90;72.70;;;;;;5115568;28;19953;-70
2023/10/05 14:25:57;;;;;;;;;;;14.90;73.40;;;;;;5115695;28;19915;-69
2023/10/05 14:28:25;;;;;;;;;;;14.90;73.50;;;;;;5115495;28;20360;-72
2023/10/05 14:30:52;;;;;;;;;;;14.90;73.00;;;;;;5115566;28;19931;-68
2023/10/05 14:33:22;;;;;;;;;;;14.90;73.70;;;;;;5115401;28;20364;-68
2023/10/05 14:35:56;;;;;;;;;;;14.80;73.90;;;;;;5115422;28;19983;-70
2023/10/05 14:38:25;;;;;;;;;;;14.80;74.00;;;;;;5115354;28;19914;-70
2023/10/05 14:40:53;;;;;;;;;;;14.70;73.80;;;;;;5115394;28;19908;-70
2023/10/05 14:43:34;;;;;;;;;;;14.70;74.20;;;;;;5097940;28;19970;-69
2023/10/05 14:46:05;;;;;;;;;;;14.60;73.20;;;;;;5115630;28;19915;-70
2023/10/05 14:48:32;;;;;;;;;;;14.60;74.00;;;;;;5115324;28;19949;-70
2023/10/05 14:50:59;;;;;;;;;;;14.50;74.30;;;;;;5115038;28;19908;-69
2023/10/05 14:53:26;;;;;;;;;;;14.60;75.80;;;;;;5096957;28;19908;-70
2023/10/05 14:55:56;;;;;;;;;;;14.50;75.40;;;;;;5115280;28;20063;-69
2023/10/05 14:58:25;;;;;;;;;;;14.50;76.20;;;;;;5115316;28;19908;-67
2023/10/05 15:00:56;;;;;;;;;;;14.50;76.00;;;;;;5115080;28;20345;-69
2023/10/05 15:03:24;;;;;;;;;;;14.50;76.80;;;;;;5114916;28;19908;-68